West Bend, WI (53090)

9:57 PM CST on February 12, 2016 (GMT -0600)
The Core | | Change Station
CLOSE
Current Station
Personal Weather Station
Location: West Bend, WI
Elevation: 942 ft
Nearby Weather Stations
Active Advisory: Wind Chill Advisory

Elev 942 ft 43.43 °N, 88.19 °W | Updated 21 seconds ago

Clear
Clear
3.0 °F
Feels Like -10 °F
N
7.4
Wind Variable Wind from North
Gusts 9.8 mph

Today
High -- | Low -- °F
--% Chance of Precip.
Yesterday
High -- | Low -- °F
Precip. -- in
Pressure 30.42 in
Visibility 10.0 miles
Clouds Clear
Windchill -10 °F
Dew Point -20 °F
Humidity 32%
Rainfall 0.00 in
Snow Depth Not available.
6:55 AM 5:18 PM
Waxing Crescent, 26% visible
METAR KETB 130330Z AUTO 32008G18KT 10SM CLR M16/M25 A3042 RMK AO2
Pressure 30.42 in
Visibility 10.0 miles
Clouds Clear
Windchill -10 °F
Dew Point -20 °F
Humidity 32%
Rainfall 0.00 in
Snow Depth Not available.
6:55 AM 5:18 PM
Waxing Crescent, 26% visible
METAR KETB 130330Z AUTO 32008G18KT 10SM CLR M16/M25 A3042 RMK AO2

10-Day Weather Forecast

Almanac

Astronomy

Feb. 12, 2016 Rise Set
Actual Time
Civil Twilight
Nautical Twilight
Astronomical Twilight
Moon
Length of Visible Light
Length of Day
Tomorrow will be .
, % of the Moon is Illuminated

Today's Extremes

State Highs State Lows

Community

WunderPhotos

Upload Photos

1,892,492 photos uploaded!

WunderBlog® & News

Nearby

Air Quality

  Air Quality AQ Index Pollutant
Not available.

Snow Depth

Station Depth Elevation

Earthquake Activity

City Distance Mag. Time & Date
Minimum magnitude displayed is 2.5.

Coastal Water Temperatures

Place Temperature

Stations

Nearby Weather Stations

Station Location Temp. Windchill Dew Point Humidity Wind Precip. Elev Updated Type
                   

Watches & Warnings

Wind Chill Advisory
Issued: 9:19 PM CST Feb. 12, 2016 – National Weather Service

... Wind Chill Advisory remains in effect until 9 am CST
Saturday...

A Wind Chill Advisory remains in effect until 9 am CST Saturday.

* Tonight through early Saturday.

* Wind chill values of 20 to 25 degrees below zero are expected.

Precautionary/preparedness actions...

A Wind Chill Advisory means that very cold air and strong winds
will combine to generate low wind chills. This will result in
frost bite and lead to hypothermia if precautions are not taken.
If you must venture outdoors... make sure you wear a hat and
gloves.



Hentz